createdAt,value
2023-06-02T00:02:42.970Z,11.20
2023-06-02T00:05:32.776Z,11.50
2023-06-02T00:08:21.688Z,12.95
2023-06-02T00:11:11.335Z,11.82
2023-06-02T00:13:58.892Z,12.13
2023-06-02T00:16:47.523Z,11.50
2023-06-02T00:19:36.319Z,11.13
2023-06-02T00:22:30.372Z,11.88
2023-06-02T00:25:18.058Z,12.63
2023-06-02T00:28:05.672Z,12.07
2023-06-02T00:30:53.354Z,12.70
2023-06-02T00:33:42.666Z,12.07
2023-06-02T00:36:30.362Z,13.50
2023-06-02T00:39:18.214Z,12.40
2023-06-02T00:42:06.485Z,13.05
2023-06-02T00:44:54.518Z,12.13
2023-06-02T00:47:42.181Z,13.52
2023-06-02T00:50:31.882Z,12.75
2023-06-02T00:53:19.871Z,12.15
2023-06-02T00:56:07.899Z,13.05
2023-06-02T00:58:55.829Z,12.50
2023-06-02T01:01:45.537Z,14.80
2023-06-02T01:04:33.558Z,12.60
2023-06-02T01:07:25.375Z,14.45
2023-06-02T01:10:16.078Z,12.80
2023-06-02T01:13:04.117Z,14.20
2023-06-02T01:15:51.855Z,12.95
2023-06-02T01:18:47.116Z,13.48
2023-06-02T01:21:38.639Z,15.82
2023-06-02T01:24:37.196Z,13.73
2023-06-02T01:27:24.772Z,11.52
2023-06-02T01:30:13.099Z,12.80
2023-06-02T01:33:12.717Z,13.65
2023-06-02T01:36:00.718Z,13.43
2023-06-02T01:38:50.191Z,15.13
2023-06-02T01:41:44.307Z,16.42
2023-06-02T01:47:19.716Z,14.05
2023-06-02T01:50:07.971Z,12.70
2023-06-02T01:52:55.646Z,13.50
2023-06-02T01:55:43.219Z,14.15
2023-06-02T01:58:31.289Z,14.23
2023-06-02T02:01:19.254Z,12.60
2023-06-02T02:04:06.867Z,13.55
2023-06-02T02:06:54.412Z,16.15
2023-06-02T02:09:43.658Z,13.30
2023-06-02T02:12:31.498Z,16.08
2023-06-02T02:15:19.565Z,13.75
2023-06-02T02:18:08.026Z,16.58
2023-06-02T02:20:55.867Z,16.90
2023-06-02T02:23:43.448Z,16.77
2023-06-02T02:26:30.923Z,13.55
2023-06-02T02:29:18.617Z,15.40
2023-06-02T02:32:07.127Z,16.45
2023-06-02T02:34:54.916Z,17.45
2023-06-02T02:37:47.276Z,19.38
2023-06-02T02:40:35.453Z,16.38
2023-06-02T02:43:23.343Z,14.60
2023-06-02T02:46:11.333Z,16.95
2023-06-02T02:48:58.976Z,16.02
2023-06-02T02:51:46.798Z,16.85
2023-06-02T02:54:34.376Z,16.33
2023-06-02T02:57:21.982Z,17.60
2023-06-02T03:00:10.921Z,19.73
2023-06-02T03:02:58.735Z,15.25
2023-06-02T03:05:46.652Z,14.43
2023-06-02T03:08:34.247Z,16.45
2023-06-02T03:11:22.543Z,14.55
2023-06-02T03:14:11.152Z,16.75
2023-06-02T03:16:59.206Z,19.70
2023-06-02T03:19:47.127Z,16.25
2023-06-02T03:22:35.044Z,14.25
2023-06-02T03:25:23.450Z,14.15
2023-06-02T03:28:11.194Z,13.45
2023-06-02T03:30:58.969Z,17.85
2023-06-02T03:33:47.539Z,18.85
2023-06-02T03:36:36.993Z,15.60
2023-06-02T03:39:24.618Z,15.55
2023-06-02T03:42:12.263Z,18.80
2023-06-02T03:45:00.041Z,17.83
2023-06-02T03:47:47.658Z,14.20
2023-06-02T03:50:38.135Z,16.33
2023-06-02T03:53:25.975Z,13.07
2023-06-02T03:56:13.728Z,17.40
2023-06-02T03:59:01.453Z,15.10
2023-06-02T04:01:50.426Z,16.30
2023-06-02T04:04:38.347Z,16.98
2023-06-02T04:07:26.384Z,15.88
2023-06-02T04:10:14.028Z,15.18
2023-06-02T04:13:01.832Z,19.13
2023-06-02T04:15:49.443Z,19.80
2023-06-02T04:18:40.161Z,16.73
2023-06-02T04:21:27.983Z,15.95
2023-06-02T04:24:15.547Z,17.63
2023-06-02T04:27:03.409Z,17.05
2023-06-02T04:29:52.083Z,13.35
2023-06-02T04:32:40.009Z,15.55
2023-06-02T04:35:27.861Z,16.90
2023-06-02T04:38:15.641Z,15.23
2023-06-02T04:41:03.307Z,12.30
2023-06-02T04:43:52.200Z,17.17
2023-06-02T04:46:40.152Z,13.23
2023-06-02T04:49:27.953Z,21.52
2023-06-02T04:52:15.731Z,18.85
2023-06-02T04:55:03.510Z,14.65
2023-06-02T04:57:52.240Z,18.00
2023-06-02T05:00:40.107Z,12.68
2023-06-02T05:03:27.699Z,16.02
2023-06-02T05:06:15.357Z,14.07
2023-06-02T05:09:05.616Z,13.65
2023-06-02T05:11:53.563Z,15.55
2023-06-02T05:14:41.650Z,16.75
2023-06-02T05:17:29.430Z,11.93
2023-06-02T05:20:17.128Z,10.43
2023-06-02T05:23:04.706Z,12.00
2023-06-02T05:25:53.654Z,17.85
2023-06-02T05:28:41.729Z,12.57
2023-06-02T05:31:29.357Z,14.68
2023-06-02T05:34:16.965Z,10.40
2023-06-02T05:37:08.003Z,15.75
2023-06-02T05:39:55.581Z,13.82
2023-06-02T05:42:43.182Z,13.65
2023-06-02T05:45:30.977Z,14.18
2023-06-02T05:48:21.751Z,11.10
2023-06-02T05:51:09.412Z,10.43
2023-06-02T05:53:57.108Z,11.38
2023-06-02T05:56:44.629Z,12.23
2023-06-02T05:59:32.326Z,12.85
2023-06-02T06:02:20.227Z,11.65
2023-06-02T06:05:08.246Z,10.27
2023-06-02T06:07:55.959Z,12.10
2023-06-02T06:10:43.855Z,9.43
2023-06-02T06:13:31.656Z,10.40
2023-06-02T06:16:19.625Z,14.90
2023-06-02T06:19:07.274Z,13.35
2023-06-02T06:21:54.842Z,11.57
2023-06-02T06:24:43.407Z,11.10
2023-06-02T06:27:31.045Z,12.38
2023-06-02T06:30:20.486Z,12.30
2023-06-02T06:33:09.764Z,9.32
2023-06-02T06:35:57.508Z,13.82
2023-06-02T06:38:45.122Z,11.88
2023-06-02T06:41:34.187Z,11.43
2023-06-02T06:44:22.024Z,13.27
2023-06-02T06:47:09.647Z,12.38
2023-06-02T06:49:57.279Z,12.98
2023-06-02T06:52:47.172Z,13.70
2023-06-02T06:55:35.093Z,31.83
2023-06-02T06:58:22.810Z,15.45
2023-06-02T07:01:11.363Z,10.00
2023-06-02T07:03:59.488Z,13.98
2023-06-02T07:06:49.114Z,16.05
2023-06-02T07:09:36.946Z,11.93
2023-06-02T07:12:24.829Z,11.15
2023-06-02T07:15:17.902Z,11.20
2023-06-02T07:18:08.381Z,13.45
2023-06-02T07:20:56.165Z,9.45
2023-06-02T07:23:43.853Z,8.32
2023-06-02T07:26:31.456Z,9.88
2023-06-02T07:29:19.796Z,9.43
2023-06-02T07:32:08.555Z,9.40
2023-06-02T07:34:56.337Z,9.32
2023-06-02T07:37:45.435Z,9.40
2023-06-02T07:40:35.738Z,10.43
2023-06-02T07:43:24.658Z,8.52
2023-06-02T07:46:15.280Z,9.50
2023-06-02T07:49:04.316Z,9.13
2023-06-02T07:51:54.238Z,10.18
2023-06-02T07:54:42.018Z,8.00
2023-06-02T07:57:32.130Z,9.23
2023-06-02T08:00:24.033Z,12.85
2023-06-02T08:03:14.467Z,8.60
2023-06-02T08:06:05.031Z,8.32
2023-06-02T08:08:55.437Z,7.45
2023-06-02T08:11:45.723Z,7.90
2023-06-02T08:14:34.863Z,8.65
2023-06-02T08:17:30.410Z,11.80
2023-06-02T08:20:21.162Z,11.65
2023-06-02T08:23:13.349Z,9.07
2023-06-02T08:26:03.737Z,10.77
2023-06-02T08:28:54.410Z,9.32
2023-06-02T08:31:47.685Z,8.68
2023-06-02T08:34:38.418Z,6.65
2023-06-02T08:37:30.923Z,7.82
2023-06-02T08:40:24.714Z,6.82
2023-06-02T08:43:16.135Z,6.38
2023-06-02T08:46:07.451Z,9.48
2023-06-02T08:48:59.564Z,8.65
2023-06-02T08:52:00.833Z,6.90
2023-06-02T08:54:51.829Z,9.52
2023-06-02T08:57:47.139Z,8.23
2023-06-02T09:00:41.563Z,9.35
2023-06-02T09:03:45.263Z,9.20
2023-06-02T09:06:37.650Z,6.85
2023-06-02T09:09:41.190Z,10.23
2023-06-02T09:12:31.219Z,7.82
2023-06-02T09:15:22.021Z,7.22
2023-06-02T09:18:15.666Z,11.57
2023-06-02T09:21:28.776Z,7.18
2023-06-02T09:24:39.650Z,14.73
2023-06-02T09:27:29.703Z,10.07
2023-06-02T09:30:20.024Z,9.82
2023-06-02T09:33:15.981Z,8.07
2023-06-02T09:36:05.930Z,7.40
2023-06-02T09:38:56.203Z,8.70
2023-06-02T09:41:46.373Z,9.55
2023-06-02T09:44:37.278Z,8.20
2023-06-02T09:47:27.641Z,11.48
2023-06-02T09:50:37.125Z,7.80
2023-06-02T09:53:28.132Z,13.77
2023-06-02T09:56:19.472Z,8.63
2023-06-02T09:59:10.213Z,7.85
2023-06-02T10:02:00.828Z,8.77
2023-06-02T10:04:52.592Z,11.52
2023-06-02T10:08:21.444Z,7.30
2023-06-02T10:11:44.605Z,9.90
2023-06-02T10:15:00.899Z,11.18
2023-06-02T10:18:21.230Z,9.75
2023-06-02T10:21:25.484Z,10.77
2023-06-02T10:24:38.548Z,12.77
2023-06-02T10:27:37.353Z,12.75
2023-06-02T10:30:27.846Z,11.15
2023-06-02T10:33:46.961Z,9.55
2023-06-02T10:37:12.294Z,9.02
2023-06-02T10:40:02.539Z,11.63
2023-06-02T10:43:13.044Z,11.00
2023-06-02T10:46:24.148Z,11.35
2023-06-02T10:49:51.985Z,8.07
2023-06-02T10:53:11.624Z,7.68
2023-06-02T10:56:36.468Z,7.60
2023-06-02T11:02:52.578Z,11.13
2023-06-02T11:05:43.310Z,8.32
2023-06-02T11:08:38.208Z,10.10
2023-06-02T11:11:51.715Z,9.40
2023-06-02T11:15:14.432Z,9.68
2023-06-02T11:18:34.950Z,14.65
2023-06-02T11:21:28.849Z,11.88
2023-06-02T11:27:12.257Z,7.63
2023-06-02T11:30:30.748Z,8.57
2023-06-02T11:33:22.458Z,8.70
2023-06-02T11:36:14.984Z,8.73
2023-06-02T11:39:09.298Z,13.15
2023-06-02T11:42:01.166Z,9.75
2023-06-02T11:44:53.136Z,10.35
2023-06-02T11:47:43.332Z,10.23
2023-06-02T11:50:35.572Z,8.15
2023-06-02T11:53:25.549Z,9.45
2023-06-02T11:56:18.777Z,10.85
2023-06-02T11:59:17.663Z,8.90
2023-06-02T12:02:25.066Z,6.40
2023-06-02T12:05:37.749Z,11.18
2023-06-02T12:08:30.037Z,9.90
2023-06-02T12:11:27.637Z,8.48
2023-06-02T12:14:19.764Z,13.82
2023-06-02T12:17:08.832Z,11.93
2023-06-02T12:20:02.601Z,9.30
2023-06-02T12:26:00.828Z,6.77
2023-06-02T12:28:54.070Z,10.48
2023-06-02T12:31:44.160Z,11.43
2023-06-02T12:34:34.781Z,10.13
2023-06-02T12:37:24.338Z,9.52
2023-06-02T12:40:14.246Z,9.02
2023-06-02T12:43:04.636Z,11.07
2023-06-02T12:45:54.981Z,7.55
2023-06-02T12:48:46.249Z,15.82
2023-06-02T12:51:38.390Z,7.45
2023-06-02T12:54:28.186Z,6.93
2023-06-02T12:57:23.498Z,10.35
2023-06-02T13:00:11.687Z,7.82
2023-06-02T13:03:05.438Z,11.48
2023-06-02T13:06:08.420Z,9.98
2023-06-02T13:08:59.044Z,9.32
2023-06-02T13:11:51.408Z,10.95
2023-06-02T13:14:46.402Z,8.90
2023-06-02T13:20:26.074Z,8.43
2023-06-02T13:23:15.838Z,7.82
2023-06-02T13:26:07.492Z,8.27
2023-06-02T13:28:59.299Z,9.70
2023-06-02T13:31:49.247Z,7.88
2023-06-02T13:34:41.333Z,7.25
2023-06-02T13:37:31.371Z,9.20
2023-06-02T13:40:23.078Z,10.77
2023-06-02T13:43:13.333Z,8.80
2023-06-02T13:46:03.843Z,7.75
2023-06-02T13:48:54.330Z,11.93
2023-06-02T13:51:49.828Z,11.63
2023-06-02T13:54:40.051Z,7.80
2023-06-02T13:57:30.424Z,8.68
2023-06-02T14:00:18.433Z,8.30
2023-06-02T14:03:08.321Z,15.95
2023-06-02T14:06:04.251Z,9.25
2023-06-02T14:08:55.279Z,5.90
2023-06-02T14:11:45.926Z,9.63
2023-06-02T14:14:36.613Z,9.50
2023-06-02T14:17:26.132Z,8.68
2023-06-02T14:20:16.389Z,8.40
2023-06-02T14:23:05.859Z,9.93
2023-06-02T14:25:56.576Z,15.23
2023-06-02T14:28:54.474Z,13.70
2023-06-02T14:31:44.154Z,8.95
2023-06-02T14:34:37.012Z,6.60
2023-06-02T14:37:27.861Z,9.32
2023-06-02T14:40:19.311Z,9.55
2023-06-02T14:43:09.250Z,6.32
2023-06-02T14:46:00.201Z,9.02
2023-06-02T14:48:50.469Z,6.90
2023-06-02T14:51:41.063Z,9.43
2023-06-02T14:54:31.430Z,7.68
2023-06-02T14:57:21.599Z,13.45
2023-06-02T15:00:10.001Z,10.68
2023-06-02T15:03:00.831Z,8.02
2023-06-02T15:05:51.344Z,12.73
2023-06-02T15:08:39.626Z,10.75
2023-06-02T15:11:33.135Z,8.55
2023-06-02T15:14:23.209Z,8.77
2023-06-02T15:17:13.704Z,8.25
2023-06-02T15:20:04.544Z,10.00
2023-06-02T15:22:55.087Z,7.63
2023-06-02T15:25:45.301Z,7.97
2023-06-02T15:28:35.369Z,8.77
2023-06-02T15:31:26.215Z,7.55
2023-06-02T15:34:19.399Z,11.38
2023-06-02T15:37:08.222Z,13.53
2023-06-02T15:39:58.778Z,7.10
2023-06-02T15:42:49.736Z,8.77
2023-06-02T15:45:39.498Z,11.55
2023-06-02T15:48:29.770Z,6.85
2023-06-02T15:51:19.686Z,6.78
2023-06-02T15:54:08.607Z,7.55
2023-06-02T15:57:00.052Z,10.00
2023-06-02T15:59:49.463Z,7.43
2023-06-02T16:02:41.703Z,8.77
2023-06-02T16:05:31.862Z,9.05
2023-06-02T16:08:21.832Z,9.75
2023-06-02T16:11:11.952Z,10.05
2023-06-02T16:14:02.045Z,8.10
2023-06-02T16:16:51.826Z,8.00
2023-06-02T16:19:41.843Z,6.47
2023-06-02T16:22:31.491Z,6.13
2023-06-02T16:25:23.306Z,6.43
2023-06-02T16:28:14.688Z,6.70
2023-06-02T16:31:08.255Z,5.50
2023-06-02T16:33:58.305Z,6.72
2023-06-02T16:36:49.457Z,9.38
2023-06-02T16:39:41.540Z,6.35
2023-06-02T16:42:32.753Z,8.48
2023-06-02T16:45:25.704Z,7.18
2023-06-02T16:48:16.257Z,5.75
2023-06-02T16:51:07.378Z,5.53
2023-06-02T16:53:57.769Z,9.20
2023-06-02T16:56:47.836Z,8.52
2023-06-02T16:59:37.584Z,7.43
2023-06-02T17:02:27.713Z,9.63
2023-06-02T17:05:17.722Z,7.00
2023-06-02T17:08:07.374Z,6.03
2023-06-02T17:10:56.637Z,5.57
2023-06-02T17:13:47.103Z,8.48
2023-06-02T17:16:37.810Z,7.65
2023-06-02T17:19:28.393Z,7.82
2023-06-02T17:22:18.728Z,6.97
2023-06-02T17:25:08.335Z,5.22
2023-06-02T17:27:56.270Z,9.32
2023-06-02T17:30:45.555Z,6.85
2023-06-02T17:33:34.646Z,6.88
2023-06-02T17:36:24.605Z,9.10
2023-06-02T17:39:13.612Z,7.65
2023-06-02T17:42:01.466Z,10.68
2023-06-02T17:44:49.262Z,7.80
2023-06-02T17:47:37.141Z,9.27
2023-06-02T17:50:25.707Z,9.32
2023-06-02T17:53:15.551Z,6.47
2023-06-02T17:56:08.563Z,9.10
2023-06-02T17:58:58.546Z,8.25
2023-06-02T18:01:46.560Z,7.10
2023-06-02T18:04:34.303Z,6.78
2023-06-02T18:07:25.261Z,9.88
2023-06-02T18:10:13.178Z,10.82
2023-06-02T18:13:04.616Z,8.23
2023-06-02T18:15:52.293Z,9.40
2023-06-02T18:18:40.148Z,7.00
2023-06-02T18:21:27.842Z,10.02
2023-06-02T18:24:16.502Z,7.85
2023-06-02T18:27:04.325Z,9.18
2023-06-02T18:29:52.099Z,6.93
2023-06-02T18:32:39.846Z,7.18
2023-06-02T18:35:29.430Z,10.60
2023-06-02T18:38:17.095Z,10.05
2023-06-02T18:41:04.914Z,10.52
2023-06-02T18:43:52.738Z,10.05
2023-06-02T18:46:43.192Z,5.60
2023-06-02T18:49:30.862Z,7.57
2023-06-02T18:52:18.733Z,8.45
2023-06-02T18:55:06.600Z,6.03
2023-06-02T18:57:54.319Z,6.88
2023-06-02T19:00:43.462Z,7.45
2023-06-02T19:03:32.614Z,6.47
2023-06-02T19:06:20.797Z,7.30
2023-06-02T19:09:08.504Z,6.97
2023-06-02T19:11:56.518Z,5.50
2023-06-02T19:14:44.153Z,8.15
2023-06-02T19:17:32.104Z,5.90
2023-06-02T19:20:19.862Z,6.80
2023-06-02T19:23:07.610Z,9.02
2023-06-02T19:25:55.477Z,7.53
2023-06-02T19:28:43.130Z,9.68
2023-06-02T19:31:30.682Z,8.32
2023-06-02T19:34:20.135Z,5.20
2023-06-02T19:37:08.332Z,6.55
2023-06-02T19:39:56.323Z,9.23
2023-06-02T19:42:43.976Z,6.55
2023-06-02T19:45:31.697Z,8.63
2023-06-02T19:48:20.886Z,9.25
2023-06-02T19:51:11.758Z,9.88
2023-06-02T19:53:59.813Z,7.70
2023-06-02T19:56:53.400Z,9.07
2023-06-02T19:59:41.671Z,7.18
2023-06-02T20:02:29.791Z,9.32
2023-06-02T20:05:17.886Z,8.25
2023-06-02T20:08:05.840Z,11.65
2023-06-02T20:10:54.611Z,10.10
2023-06-02T20:13:42.758Z,11.85
2023-06-02T20:16:31.183Z,7.20
2023-06-02T20:19:20.765Z,11.18
2023-06-02T20:22:11.043Z,16.10
2023-06-02T20:24:59.094Z,13.57
2023-06-02T20:27:46.919Z,10.38
2023-06-02T20:30:35.303Z,9.88
2023-06-02T20:33:26.082Z,11.77
2023-06-02T20:36:16.877Z,10.55
2023-06-02T20:39:04.760Z,10.18
2023-06-02T20:41:53.186Z,9.60
2023-06-02T20:44:40.946Z,8.63
2023-06-02T20:47:29.573Z,8.18
2023-06-02T20:50:17.614Z,9.10
2023-06-02T20:53:06.499Z,7.60
2023-06-02T20:55:55.824Z,8.85
2023-06-02T20:58:43.862Z,12.10
2023-06-02T21:01:32.510Z,8.30
2023-06-02T21:04:20.876Z,5.80
2023-06-02T21:07:08.719Z,9.75
2023-06-02T21:09:56.581Z,9.48
2023-06-02T21:12:44.264Z,6.55
2023-06-02T21:15:33.283Z,6.05
2023-06-02T21:18:24.048Z,8.13
2023-06-02T21:21:12.392Z,6.90
2023-06-02T21:24:00.510Z,6.70
2023-06-02T21:26:54.397Z,11.95
2023-06-02T21:29:43.478Z,8.48
2023-06-02T21:32:31.203Z,7.53
2023-06-02T21:35:22.058Z,14.32
2023-06-02T21:38:11.298Z,11.68
2023-06-02T21:40:59.267Z,12.10
2023-06-02T21:43:47.265Z,8.73
2023-06-02T21:46:35.180Z,10.15
2023-06-02T21:49:22.934Z,8.70
2023-06-02T21:52:10.644Z,7.88
2023-06-02T21:54:58.411Z,6.15
2023-06-02T21:57:46.197Z,7.45
2023-06-02T22:00:34.403Z,9.73
2023-06-02T22:03:22.466Z,7.75
2023-06-02T22:06:10.408Z,9.07
2023-06-02T22:08:57.986Z,9.05
2023-06-02T22:11:48.558Z,6.13
2023-06-02T22:14:36.292Z,5.90
2023-06-02T22:17:24.692Z,7.53
2023-06-02T22:20:12.841Z,4.57
2023-06-02T22:23:00.573Z,7.85
2023-06-02T22:25:48.595Z,5.60
2023-06-02T22:28:36.626Z,9.50
2023-06-02T22:31:24.330Z,7.13
2023-06-02T22:34:13.234Z,7.05
2023-06-02T22:37:02.493Z,5.05
2023-06-02T22:39:50.223Z,7.80
2023-06-02T22:42:37.889Z,6.85
2023-06-02T22:45:25.828Z,7.50
2023-06-02T22:48:13.565Z,9.15
2023-06-02T22:51:01.440Z,9.25
2023-06-02T22:53:49.385Z,9.52
2023-06-02T22:56:37.172Z,6.63
2023-06-02T22:59:24.808Z,7.70
2023-06-02T23:02:15.184Z,10.80
2023-06-02T23:05:03.362Z,10.68
2023-06-02T23:07:51.437Z,11.15
2023-06-02T23:10:39.272Z,7.22
2023-06-02T23:13:27.006Z,12.80
2023-06-02T23:16:15.280Z,9.43
2023-06-02T23:19:02.965Z,6.35
2023-06-02T23:21:50.702Z,10.77
2023-06-02T23:24:39.187Z,9.18
2023-06-02T23:27:26.773Z,9.40
2023-06-02T23:30:16.520Z,10.80
2023-06-02T23:33:05.856Z,11.10
2023-06-02T23:35:53.486Z,9.15
2023-06-02T23:38:41.841Z,9.00
2023-06-02T23:41:29.604Z,8.20
2023-06-02T23:44:17.476Z,11.20
2023-06-02T23:47:05.712Z,8.40
2023-06-02T23:49:53.460Z,10.93
2023-06-02T23:52:41.584Z,9.82
2023-06-02T23:55:29.965Z,15.45
2023-06-02T23:58:17.702Z,5.85
